»·PEaware :: N286WF KPSP-KVCV

N286WF :: KPSP-KVCV

FLIGHT INFORMATION

Flight Status: Arrived
Operator: Privately registered:
United States
More flights under this callsign
Pilot: Frank W. (16848)
Aircraft: Unknown
(P28U)
More flights by this aircraft type
Origin: KPSP Palm Springs Intl
United States
Destination: KVCV Socal Logistics
United States
More flights between these airports :: More routes between these airports
Route: PSP SOGGI VCV
File this flight plan on PilotEdge
Remarks: Advisories Requested
Altitude:
(Current/Filed)
6,500ft
Speed:
(Current/Filed)
140kts
Departed: 14-May-19 06:28 PM
Arrived: 14-May-19 07:11 PM
Distance/Time
Traveled:
63nm/0:43
Distance/Time
To Go:
Arrived

Flight Plot

Page will automatically refresh every two minutes.


Map Options




Map Legend


Flown Route
Filed Route
Departure Airport
Arrival Airport
Navaid (VOR, NDB)
Fix

Horizontal Profiles

Position Reports

Time Latitude Longitude Heading Altitude Ground
Speed
14-May-19 18:16 33.823773 -116.497962 54 398ft 0kts
14-May-19 18:17 33.823773 -116.497962 54 398ft 0kts
14-May-19 18:18 33.823773 -116.497962 54 398ft 0kts
14-May-19 18:19 33.823773 -116.497962 54 398ft 0kts
14-May-19 18:20 33.823773 -116.497962 54 398ft 0kts
14-May-19 18:21 33.823773 -116.497962 54 398ft 0kts
14-May-19 18:22 33.823773 -116.497962 54 398ft 0kts
14-May-19 18:23 33.824076 -116.498154 323 398ft 11kts
14-May-19 18:24 33.825023 -116.499150 262 400ft 0kts
14-May-19 18:25 33.825023 -116.499150 262 400ft 0kts
14-May-19 18:26 33.824586 -116.499692 232 400ft 0kts
14-May-19 18:27 33.824401 -116.500113 329 401ft 4kts
14-May-19 18:28 33.829560 -116.504670 322 422ft 86kts
14-May-19 18:29 33.852211 -116.518678 349 1451ft 97kts
14-May-19 18:30 33.878076 -116.529436 334 2565ft 101kts
14-May-19 18:31 33.905256 -116.538122 353 3619ft 107kts
14-May-19 18:32 33.915683 -116.508969 83 4658ft 104kts
14-May-19 18:33 33.926179 -116.481514 356 5737ft 104kts
14-May-19 18:34 33.952963 -116.496022 338 6644ft 112kts
14-May-19 18:35 33.987275 -116.509690 343 6618ft 137kts
14-May-19 18:36 34.023827 -116.521994 345 6622ft 137kts
14-May-19 18:36 34.054365 -116.531812 345 6620ft 135kts
14-May-19 18:38 34.096854 -116.545396 345 6620ft 135kts
14-May-19 18:38 34.127298 -116.555111 345 6620ft 136kts
14-May-19 18:39 34.163852 -116.566782 345 6620ft 136kts
14-May-19 18:40 34.200491 -116.578493 345 6620ft 136kts
14-May-19 18:41 34.237109 -116.590208 345 6620ft 136kts
14-May-19 18:42 34.274252 -116.602102 345 6520ft 138kts
14-May-19 18:43 34.311114 -116.613783 346 6520ft 136kts
14-May-19 18:44 34.347721 -116.625479 345 6520ft 136kts
14-May-19 18:45 34.384419 -116.637235 345 6520ft 136kts
14-May-19 18:46 34.420971 -116.648987 345 6520ft 136kts
14-May-19 18:47 34.457651 -116.660787 345 6520ft 136kts
14-May-19 18:48 34.494139 -116.672854 335 6513ft 136kts
14-May-19 18:49 34.508685 -116.714193 283 6519ft 136kts
14-May-19 18:50 34.516063 -116.759266 280 6520ft 136kts
14-May-19 18:51 34.522253 -116.804519 278 6519ft 136kts
14-May-19 18:52 34.527669 -116.850044 279 6520ft 136kts
14-May-19 18:53 34.533805 -116.895492 279 6520ft 136kts
14-May-19 18:54 34.539956 -116.940878 279 6520ft 136kts
14-May-19 18:55 34.546101 -116.986218 279 6520ft 136kts
14-May-19 18:56 34.552228 -117.031781 279 6520ft 136kts
14-May-19 18:57 34.558557 -117.077074 281 6520ft 136kts
14-May-19 18:58 34.580322 -117.114141 312 6520ft 136kts
14-May-19 18:59 34.605575 -117.148347 312 6520ft 136kts
14-May-19 19:00 34.625446 -117.185270 276 6743ft 123kts
14-May-19 19:01 34.632783 -117.225113 281 6573ft 121kts
14-May-19 19:02 34.641619 -117.261855 279 6152ft 112kts
14-May-19 19:03 34.647443 -117.290085 190 4946ft 64kts
14-May-19 19:04 34.642305 -117.291114 312 4406ft 91kts
14-May-19 19:05 34.642459 -117.314593 231 3877ft 69kts
14-May-19 19:06 34.644480 -117.340253 291 3685ft 102kts
14-May-19 19:07 34.649201 -117.367696 225 3627ft 86kts
14-May-19 19:08 34.633358 -117.386059 188 3131ft 74kts
14-May-19 19:09 34.615226 -117.386714 177 2839ft 56kts
14-May-19 19:10 34.605537 -117.386632 179 2834ft 28kts
14-May-19 19:11 34.597692 -117.386561 178 2849ft 28kts
14-May-19 19:12 34.594378 -117.383415 135 2857ft 20kts
14-May-19 19:13 34.591127 -117.379373 128 2864ft 0kts
14-May-19 19:14 34.591021 -117.379232 133 2864ft 0kts
14-May-19 19:15 34.588989 -117.377420 221 2868ft 15kts
14-May-19 19:16 34.584859 -117.381549 199 2876ft 15kts
14-May-19 19:17 34.583806 -117.381817 317 2878ft 0kts
14-May-19 19:18 34.583806 -117.381816 317 2878ft 0kts
14-May-19 19:19 34.583806 -117.381816 317 2878ft 0kts
14-May-19 19:20 34.583806 -117.381816 317 2878ft 0kts
14-May-19 19:21 34.583806 -117.381816 317 2878ft 0kts
14-May-19 19:22 34.583806 -117.381816 317 2878ft 0kts
14-May-19 19:23 34.583806 -117.381816 317 2878ft 0kts
14-May-19 19:24 34.583806 -117.381816 317 2878ft 0kts

Navigation Log

Ident Type
Flight plan parsing failed, navigation log unavailable